Time;durP1;ratioP1;P1;durP2;ratioP2;P2;SDS_P1;SDS_P2;PMS_P1;PMS_P2;Temp;Humidity;BMP_temperature;BMP_pressure;BME280_temperature;BME280_humidity;BME280_pressure;Samples;Min_cycle;Max_cycle;Signal;HPM_P1;HPM_P2
2023/11/04 00:00:08;;;;;;;1.85;0.80;;;9.20;99.90;;;;;;5050765;28;20112;-54
2023/11/04 00:02:34;;;;;;;0.85;0.80;;;9.20;99.90;;;;;;5033003;28;20025;-54
2023/11/04 00:04:59;;;;;;;0.85;0.85;;;9.20;99.90;;;;;;5050874;28;20025;-54
2023/11/04 00:07:26;;;;;;;1.10;0.88;;;9.20;99.90;;;;;;5051006;28;20489;-54
2023/11/04 00:09:51;;;;;;;1.48;1.13;;;9.20;99.90;;;;;;5052670;28;20029;-54
2023/11/04 00:12:17;;;;;;;1.17;1.08;;;9.30;99.90;;;;;;5052697;28;20055;-52
2023/11/04 00:14:43;;;;;;;2.00;0.90;;;9.30;99.90;;;;;;5049364;28;20025;-54
2023/11/04 00:17:08;;;;;;;4.13;1.10;;;9.40;99.90;;;;;;5052923;28;20017;-54
2023/11/04 00:19:34;;;;;;;1.10;1.00;;;9.40;99.90;;;;;;5053476;28;20035;-53
2023/11/04 00:22:00;;;;;;;1.38;1.20;;;9.40;99.90;;;;;;5042181;28;20029;-55
2023/11/04 00:24:25;;;;;;;3.50;1.30;;;9.40;99.90;;;;;;5054510;28;20032;-54
2023/11/04 00:26:51;;;;;;;1.10;1.00;;;9.30;99.90;;;;;;5056651;28;20040;-54
2023/11/04 00:29:17;;;;;;;1.70;1.05;;;9.40;99.90;;;;;;5056890;28;20389;-54
2023/11/04 00:31:42;;;;;;;1.98;1.15;;;9.40;99.90;;;;;;5056796;28;20063;-54
2023/11/04 00:34:08;;;;;;;3.17;1.23;;;9.40;99.90;;;;;;5055787;28;20021;-54
2023/11/04 00:36:34;;;;;;;4.38;0.75;;;9.40;99.90;;;;;;5055799;28;20060;-54
2023/11/04 00:39:00;;;;;;;1.10;1.10;;;9.40;99.90;;;;;;5056471;28;20384;-54
2023/11/04 00:41:25;;;;;;;2.47;1.40;;;9.40;99.90;;;;;;5043146;28;20513;-54
2023/11/04 00:43:51;;;;;;;1.27;1.10;;;9.40;99.90;;;;;;5036443;28;20049;-54
2023/11/04 00:46:17;;;;;;;6.25;1.30;;;9.40;99.90;;;;;;5036655;28;20531;-54
2023/11/04 00:48:42;;;;;;;3.35;1.20;;;9.40;99.90;;;;;;5036335;28;20033;-50
2023/11/04 00:51:08;;;;;;;1.52;1.10;;;9.40;99.90;;;;;;5045354;28;20035;-54
2023/11/04 00:53:34;;;;;;;1.83;1.00;;;9.40;99.90;;;;;;5041244;28;20033;-54
2023/11/04 00:56:00;;;;;;;6.07;1.35;;;9.50;99.90;;;;;;5036106;28;20401;-51
2023/11/04 00:58:26;;;;;;;1.60;1.40;;;9.50;99.90;;;;;;5049353;28;20071;-54
2023/11/04 01:00:51;;;;;;;1.50;1.38;;;9.50;99.90;;;;;;5056057;28;20040;-54
2023/11/04 01:03:18;;;;;;;2.13;1.48;;;9.50;99.90;;;;;;5037285;28;20017;-53
2023/11/04 01:05:44;;;;;;;1.95;1.25;;;9.50;99.90;;;;;;5054186;28;20025;-54
2023/11/04 01:08:09;;;;;;;3.20;1.50;;;9.60;99.90;;;;;;5047854;28;20154;-54
2023/11/04 01:10:36;;;;;;;3.13;1.55;;;9.60;99.90;;;;;;5038024;28;20029;-53
2023/11/04 01:13:01;;;;;;;5.53;1.50;;;9.60;99.90;;;;;;5046657;28;20367;-53
2023/11/04 01:15:27;;;;;;;4.75;1.70;;;9.60;99.90;;;;;;5050417;28;20116;-54
2023/11/04 01:17:52;;;;;;;3.60;1.77;;;9.70;99.90;;;;;;5055079;28;20025;-54
2023/11/04 01:20:18;;;;;;;4.28;1.80;;;9.60;99.90;;;;;;5050972;28;20512;-54
2023/11/04 01:22:44;;;;;;;2.80;1.40;;;9.60;99.90;;;;;;5044983;28;20025;-53
2023/11/04 01:25:12;;;;;;;4.53;1.85;;;9.70;99.90;;;;;;5051976;28;20474;-53
2023/11/04 01:27:37;;;;;;;;;;;9.70;99.90;;;;;;5052194;28;20033;-55
2023/11/04 01:30:03;;;;;;;4.22;1.40;;;9.70;99.90;;;;;;5044472;28;19909;-54
2023/11/04 01:32:29;;;;;;;3.47;2.47;;;9.70;99.90;;;;;;5052185;28;20439;-54
2023/11/04 01:34:54;;;;;;;2.13;1.55;;;9.70;99.90;;;;;;5049498;28;20398;-53
2023/11/04 01:37:25;;;;;;;6.00;1.73;;;9.70;99.90;;;;;;5039487;28;20026;-54
2023/11/04 01:39:53;;;;;;;2.67;1.65;;;9.80;99.90;;;;;;5049096;28;20032;-53
2023/11/04 01:42:19;;;;;;;2.13;1.92;;;9.80;99.90;;;;;;5054567;28;20021;-53
2023/11/04 01:44:44;;;;;;;3.65;1.90;;;9.80;99.90;;;;;;5054043;28;20064;-54
2023/11/04 01:47:12;;;;;;;4.10;1.58;;;9.90;99.90;;;;;;5055455;28;20075;-54
2023/11/04 01:49:38;;;;;;;5.93;1.98;;;9.90;99.90;;;;;;5035710;28;20484;-54
2023/11/04 01:52:05;;;;;;;5.20;2.08;;;9.90;99.90;;;;;;5055145;28;20043;-52
2023/11/04 01:54:31;;;;;;;1.40;1.30;;;9.90;99.90;;;;;;5052209;28;20448;-54
2023/11/04 01:56:58;;;;;;;2.38;1.92;;;9.90;99.90;;;;;;5046879;28;20021;-54
2023/11/04 01:59:25;;;;;;;3.25;1.88;;;9.90;99.90;;;;;;5054944;28;20512;-52
2023/11/04 02:01:51;;;;;;;2.20;1.63;;;9.90;99.90;;;;;;5054453;28;20025;-54
2023/11/04 02:04:17;;;;;;;2.60;1.80;;;9.90;99.90;;;;;;5042499;28;20064;-41
2023/11/04 02:06:44;;;;;;;3.60;2.22;;;9.90;99.90;;;;;;5051037;28;20060;-45
2023/11/04 02:09:11;;;;;;;2.72;2.00;;;10.00;99.90;;;;;;5052591;28;20481;-43
2023/11/04 02:11:37;;;;;;;2.67;2.30;;;10.00;99.90;;;;;;5053959;28;20103;-45
2023/11/04 02:14:03;;;;;;;4.00;2.00;;;10.00;99.90;;;;;;5048419;28;20442;-42
2023/11/04 02:16:29;;;;;;;2.45;2.00;;;10.00;99.90;;;;;;5045612;28;20485;-44
2023/11/04 02:18:55;;;;;;;3.42;1.65;;;10.00;99.90;;;;;;5051946;28;20036;-40
2023/11/04 02:21:21;;;;;;;2.17;1.85;;;10.10;99.90;;;;;;5035363;28;20037;-46
2023/11/04 02:23:47;;;;;;;4.55;2.40;;;10.10;99.90;;;;;;5041405;28;20029;-44
2023/11/04 02:26:13;;;;;;;2.63;2.10;;;10.00;99.90;;;;;;5052596;28;20036;-40
2023/11/04 02:28:38;;;;;;;4.50;2.25;;;10.00;99.90;;;;;;5054010;28;20103;-40
2023/11/04 02:31:04;;;;;;;2.20;1.90;;;10.10;99.90;;;;;;5046672;28;20036;-43
2023/11/04 02:33:30;;;;;;;5.68;1.80;;;10.10;99.90;;;;;;5051650;28;20037;-42
2023/11/04 02:35:55;;;;;;;5.43;1.90;;;10.10;99.90;;;;;;5040779;28;20363;-44
2023/11/04 02:38:22;;;;;;;3.95;2.25;;;10.10;99.90;;;;;;5046885;28;20405;-41
2023/11/04 02:40:48;;;;;;;1.73;1.63;;;10.10;99.90;;;;;;5050377;28;20067;-43
2023/11/04 02:43:14;;;;;;;7.68;1.77;;;10.10;99.90;;;;;;5051262;28;20064;-43
2023/11/04 02:45:40;;;;;;;4.82;2.17;;;10.20;99.90;;;;;;5049304;28;20493;-45
2023/11/04 02:48:06;;;;;;;2.90;2.28;;;10.20;99.90;;;;;;5042079;28;20447;-42
2023/11/04 02:50:33;;;;;;;2.28;2.05;;;10.20;99.90;;;;;;5048621;28;20481;-47
2023/11/04 02:52:58;;;;;;;4.35;2.33;;;10.20;99.90;;;;;;5051064;28;20481;-41
2023/11/04 02:55:24;;;;;;;8.93;3.28;;;10.20;99.90;;;;;;5052732;28;20128;-41
2023/11/04 02:57:49;;;;;;;4.03;2.80;;;10.20;99.90;;;;;;5043811;28;20096;-46
2023/11/04 03:00:15;;;;;;;3.03;2.67;;;10.20;99.90;;;;;;5054021;28;20017;-44
2023/11/04 03:02:42;;;;;;;3.25;1.83;;;10.20;99.90;;;;;;5051281;28;20024;-42
2023/11/04 03:05:07;;;;;;;6.78;2.72;;;10.20;99.90;;;;;;5043700;28;20032;-44
2023/11/04 03:07:35;;;;;;;7.50;4.20;;;10.20;99.90;;;;;;5051032;28;20033;-44
2023/11/04 03:12:45;;;;;;;11.93;6.65;;;10.20;99.90;;;;;;5044986;28;20337;-41
2023/11/04 03:15:11;;;;;;;13.45;4.25;;;10.30;99.90;;;;;;5052119;28;20428;-42
2023/11/04 03:17:37;;;;;;;5.80;3.47;;;10.30;99.90;;;;;;5050098;28;20104;-42
2023/11/04 03:20:03;;;;;;;6.72;3.17;;;10.30;99.90;;;;;;5033832;28;20107;-41
2023/11/04 03:22:29;;;;;;;3.95;2.50;;;10.40;99.90;;;;;;5051466;28;20067;-41
2023/11/04 03:24:55;;;;;;;2.40;2.20;;;10.40;99.90;;;;;;5029333;28;20053;-46
2023/11/04 03:27:20;;;;;;;5.40;2.55;;;10.40;99.90;;;;;;5051204;28;20485;-41
2023/11/04 03:29:46;;;;;;;3.65;2.38;;;10.40;99.90;;;;;;5043538;28;20112;-42
2023/11/04 03:32:11;;;;;;;2.75;1.98;;;10.30;99.90;;;;;;5034056;28;20033;-44
2023/11/04 03:34:37;;;;;;;5.93;2.50;;;10.30;99.90;;;;;;5045499;28;20033;-44
2023/11/04 03:37:03;;;;;;;4.10;2.05;;;10.30;99.90;;;;;;5052089;28;20393;-45
2023/11/04 03:39:30;;;;;;;8.55;3.05;;;10.30;99.90;;;;;;5047310;28;20500;-43
2023/11/04 03:41:56;;;;;;;2.15;1.95;;;10.30;99.90;;;;;;5052078;28;20025;-45
2023/11/04 03:44:21;;;;;;;3.50;2.03;;;10.30;99.90;;;;;;5051907;28;20037;-39
2023/11/04 03:46:47;;;;;;;2.03;1.75;;;10.30;99.90;;;;;;5047061;28;20021;-46
2023/11/04 03:49:12;;;;;;;3.15;1.60;;;10.30;99.90;;;;;;5052631;28;20024;-45
2023/11/04 03:51:38;;;;;;;4.85;2.45;;;10.20;99.90;;;;;;5043099;28;20017;-45
2023/11/04 03:54:04;;;;;;;2.53;2.17;;;10.30;99.90;;;;;;5051505;28;20029;-46
2023/11/04 03:56:30;;;;;;;3.60;2.20;;;10.30;99.90;;;;;;5050095;28;20092;-42
2023/11/04 03:58:55;;;;;;;3.50;2.25;;;10.30;99.90;;;;;;5035374;28;20022;-46
2023/11/04 04:01:22;;;;;;;4.10;1.92;;;10.30;99.90;;;;;;5047459;28;20056;-41
2023/11/04 04:03:48;;;;;;;4.30;2.30;;;10.20;99.90;;;;;;5049355;28;20025;-44
2023/11/04 04:06:16;;;;;;;7.00;2.03;;;10.20;99.90;;;;;;5047465;28;20283;-48
2023/11/04 04:08:42;;;;;;;;;;;10.20;99.90;;;;;;5033168;28;20034;-43
2023/11/04 04:11:07;;;;;;;3.85;2.00;;;10.20;99.90;;;;;;5031850;28;20368;-41
2023/11/04 04:13:33;;;;;;;1.73;1.63;;;10.20;99.90;;;;;;5052849;28;20033;-44
2023/11/04 04:16:00;;;;;;;5.22;2.72;;;10.20;99.90;;;;;;5051989;28;20381;-44
2023/11/04 04:18:25;;;;;;;1.98;1.77;;;10.20;99.90;;;;;;5052769;28;20048;-42
2023/11/04 04:20:51;;;;;;;3.50;2.00;;;10.20;99.90;;;;;;5050503;28;20029;-41
2023/11/04 04:23:17;;;;;;;2.67;1.83;;;10.20;99.90;;;;;;5052443;28;20389;-39
2023/11/04 04:25:42;;;;;;;4.25;2.10;;;10.20;99.90;;;;;;5052398;28;20745;-44
2023/11/04 04:28:08;;;;;;;5.25;2.05;;;10.20;99.90;;;;;;5051958;28;20385;-40
2023/11/04 04:30:33;;;;;;;4.53;2.03;;;10.20;99.90;;;;;;5051719;28;20021;-44
2023/11/04 04:32:59;;;;;;;6.38;2.03;;;10.20;99.90;;;;;;5049729;28;20033;-44
2023/11/04 04:35:25;;;;;;;4.90;1.80;;;10.30;99.90;;;;;;5051499;28;20032;-41
2023/11/04 04:37:51;;;;;;;4.70;2.03;;;10.30;99.90;;;;;;5026801;28;20389;-42
2023/11/04 04:40:17;;;;;;;6.03;2.13;;;10.30;99.90;;;;;;5051928;28;20029;-43
2023/11/04 04:42:43;;;;;;;4.28;1.90;;;10.30;99.90;;;;;;5052597;28;20543;-43
2023/11/04 04:45:10;;;;;;;2.75;2.22;;;10.40;99.90;;;;;;5052173;28;20107;-40
2023/11/04 04:47:38;;;;;;;4.82;2.22;;;10.40;99.90;;;;;;5039534;28;20021;-46
2023/11/04 04:50:04;;;;;;;7.25;2.70;;;10.30;99.90;;;;;;5048974;28;20033;-42
2023/11/04 04:52:30;;;;;;;5.90;2.28;;;10.30;99.90;;;;;;5050595;28;20465;-41
2023/11/04 04:54:56;;;;;;;4.43;2.67;;;10.30;99.90;;;;;;5050332;28;20074;-39
2023/11/04 04:57:22;;;;;;;6.28;2.83;;;10.30;99.90;;;;;;5050169;28;20515;-41
2023/11/04 04:59:48;;;;;;;4.13;2.83;;;10.30;99.90;;;;;;5032290;28;20028;-40
2023/11/04 05:02:14;;;;;;;3.67;2.88;;;10.30;99.90;;;;;;5050741;28;20070;-40
2023/11/04 05:04:39;;;;;;;6.35;3.10;;;10.30;99.90;;;;;;5048708;28;20021;-44
2023/11/04 05:07:05;;;;;;;2.88;2.67;;;10.40;99.90;;;;;;5031999;28;20036;-47
2023/11/04 05:09:49;;;;;;;5.75;3.05;;;10.40;99.90;;;;;;5045127;28;20132;-42
2023/11/04 05:12:15;;;;;;;6.65;2.50;;;10.40;99.90;;;;;;5051281;28;20056;-38
2023/11/04 05:14:41;;;;;;;4.53;2.55;;;10.40;99.90;;;;;;5043204;28;20076;-39
2023/11/04 05:17:06;;;;;;;5.85;2.83;;;10.40;99.90;;;;;;5055132;28;20059;-45
2023/11/04 05:19:32;;;;;;;7.88;2.92;;;10.40;99.90;;;;;;5052272;28;20025;-40
2023/11/04 05:21:57;;;;;;;6.10;2.90;;;10.50;99.90;;;;;;5053163;28;20119;-43
2023/11/04 05:24:23;;;;;;;12.90;3.03;;;10.50;99.90;;;;;;5053872;28;20025;-42
2023/11/04 05:26:49;;;;;;;6.15;3.03;;;10.40;99.90;;;;;;5054467;28;20037;-42
2023/11/04 05:29:15;;;;;;;3.38;2.75;;;10.40;99.90;;;;;;5052841;28;20392;-39
2023/11/04 05:31:41;;;;;;;4.50;2.83;;;10.30;99.90;;;;;;5053960;28;20031;-44
2023/11/04 05:34:07;;;;;;;4.45;2.70;;;10.40;99.90;;;;;;5044779;28;20068;-44
2023/11/04 05:36:33;;;;;;;5.35;2.85;;;10.40;99.90;;;;;;5047788;28;20078;-44
2023/11/04 05:38:58;;;;;;;2.90;2.58;;;10.40;99.90;;;;;;5051554;28;20385;-43
2023/11/04 05:41:24;;;;;;;3.35;2.75;;;10.40;99.90;;;;;;5054035;28;20051;-45
2023/11/04 05:43:50;;;;;;;2.70;2.45;;;10.40;99.90;;;;;;5045584;28;20136;-43
2023/11/04 05:46:15;;;;;;;7.63;3.92;;;10.30;99.90;;;;;;5034252;28;20040;-43
2023/11/04 05:48:41;;;;;;;3.85;2.50;;;10.20;99.90;;;;;;5052931;28;20422;-42
2023/11/04 05:51:06;;;;;;;3.72;2.75;;;10.20;99.90;;;;;;5046578;28;20044;-46
2023/11/04 05:53:32;;;;;;;5.07;2.42;;;10.10;99.90;;;;;;5038736;28;20025;-40
2023/11/04 05:55:58;;;;;;;5.45;2.70;;;10.20;99.90;;;;;;5054153;28;20113;-42
2023/11/04 05:58:24;;;;;;;9.77;3.25;;;10.20;99.90;;;;;;5046945;28;20162;-40
2023/11/04 06:00:49;;;;;;;3.90;2.40;;;10.10;99.90;;;;;;5053064;28;20040;-42
2023/11/04 06:03:15;;;;;;;4.43;2.67;;;10.10;99.90;;;;;;5053921;28;20025;-41
2023/11/04 06:05:41;;;;;;;5.65;2.97;;;10.10;99.90;;;;;;5051767;28;20036;-41
2023/11/04 06:08:06;;;;;;;8.15;2.63;;;10.10;99.90;;;;;;5053765;28;20036;-42
2023/11/04 06:10:32;;;;;;;7.15;2.40;;;10.10;99.90;;;;;;5048882;28;20454;-41
2023/11/04 06:12:58;;;;;;;5.78;3.33;;;10.10;99.90;;;;;;5041511;28;20033;-42
2023/11/04 06:15:24;;;;;;;8.85;1.75;;;10.10;99.90;;;;;;5052406;28;20060;-45
2023/11/04 06:17:50;;;;;;;5.35;1.60;;;10.10;99.90;;;;;;5052787;28;20036;-41
2023/11/04 06:20:18;;;;;;;6.65;1.88;;;10.10;99.90;;;;;;5049878;28;20021;-43
2023/11/04 06:22:44;;;;;;;3.30;1.90;;;10.10;99.90;;;;;;5052951;28;20477;-41
2023/11/04 06:25:09;;;;;;;6.63;2.28;;;10.20;99.90;;;;;;5053186;28;20033;-45
2023/11/04 06:27:36;;;;;;;9.02;2.22;;;10.20;99.90;;;;;;5053663;28;20025;-44
2023/11/04 06:30:02;;;;;;;4.15;1.88;;;10.20;99.90;;;;;;5048799;28;20021;-43
2023/11/04 06:32:28;;;;;;;3.30;1.80;;;10.20;99.90;;;;;;5036576;28;20074;-43
2023/11/04 06:34:53;;;;;;;6.63;1.65;;;10.30;99.90;;;;;;5052706;28;20029;-41
2023/11/04 06:37:19;;;;;;;11.30;2.03;;;10.30;99.90;;;;;;5052329;28;20032;-41
2023/11/04 06:39:45;;;;;;;6.18;1.80;;;10.30;99.90;;;;;;5053167;28;20029;-41
2023/11/04 06:42:18;;;;;;;3.35;1.92;;;10.20;99.90;;;;;;5048926;28;20693;-40
2023/11/04 06:44:43;;;;;;;3.47;1.83;;;10.20;99.90;;;;;;5049846;28;20056;-43
2023/11/04 06:47:09;;;;;;;7.18;1.80;;;10.20;99.90;;;;;;5034135;28;20425;-42
2023/11/04 06:49:35;;;;;;;3.38;1.80;;;10.20;99.90;;;;;;5039361;28;20474;-44
2023/11/04 06:52:01;;;;;;;4.95;2.00;;;10.20;99.90;;;;;;5040696;28;20036;-43
2023/11/04 06:54:26;;;;;;;3.65;1.58;;;10.20;99.90;;;;;;5052770;28;20505;-43
2023/11/04 06:56:54;;;;;;;6.50;1.85;;;10.20;99.90;;;;;;5051301;28;20029;-43
2023/11/04 06:59:20;;;;;;;;;;;10.30;99.90;;;;;;5044602;28;20484;-42
2023/11/04 07:01:49;;;;;;;9.75;2.10;;;10.30;99.90;;;;;;5041548;28;19912;-41
2023/11/04 07:04:15;;;;;;;11.70;2.00;;;10.30;99.90;;;;;;5034301;28;20025;-44
2023/11/04 07:06:42;;;;;;;6.45;1.90;;;10.20;99.90;;;;;;5048763;28;20031;-41
2023/11/04 07:09:08;;;;;;;2.65;1.42;;;10.30;99.90;;;;;;5042861;28;20068;-42
2023/11/04 07:11:34;;;;;;;8.50;2.10;;;10.30;99.90;;;;;;5048088;28;20029;-44
2023/11/04 07:14:00;;;;;;;6.72;2.08;;;10.30;99.90;;;;;;5048009;28;20044;-42
2023/11/04 07:16:26;;;;;;;7.18;2.63;;;10.40;99.90;;;;;;5047884;28;20071;-41
2023/11/04 07:18:51;;;;;;;4.53;1.83;;;10.40;99.90;;;;;;5052318;28;20020;-43
2023/11/04 07:21:19;;;;;;;5.82;2.10;;;10.40;99.90;;;;;;5050873;28;20083;-43
2023/11/04 07:23:45;;;;;;;9.93;1.88;;;10.40;99.90;;;;;;5051652;28;20040;-45
2023/11/04 07:26:10;;;;;;;4.55;1.65;;;10.40;99.90;;;;;;5050565;28;20025;-41
2023/11/04 07:28:37;;;;;;;7.75;2.00;;;10.40;99.90;;;;;;5052515;28;20516;-40
2023/11/04 07:31:04;;;;;;;6.32;1.73;;;10.40;99.90;;;;;;5049375;28;20017;-43
2023/11/04 07:33:30;;;;;;;7.90;2.13;;;10.40;99.90;;;;;;5041265;28;20036;-46
2023/11/04 07:35:56;;;;;;;11.60;1.88;;;10.40;99.90;;;;;;5044771;28;20025;-42
2023/11/04 07:38:21;;;;;;;12.60;1.55;;;10.40;99.90;;;;;;5034193;28;20037;-44
2023/11/04 07:40:47;;;;;;;5.82;1.30;;;10.40;99.90;;;;;;5048096;28;20070;-39
2023/11/04 07:43:13;;;;;;;7.68;1.50;;;10.40;99.90;;;;;;5049905;28;20029;-44
2023/11/04 07:45:39;;;;;;;8.20;1.60;;;10.40;99.90;;;;;;5045791;28;20067;-45
2023/11/04 07:48:05;;;;;;;2.08;1.25;;;10.40;99.90;;;;;;5042513;28;20020;-43
2023/11/04 07:50:31;;;;;;;3.53;1.52;;;10.50;99.90;;;;;;5051427;28;20031;-45
2023/11/04 07:52:56;;;;;;;15.73;2.05;;;10.40;99.90;;;;;;5033012;28;20108;-41
2023/11/04 07:55:22;;;;;;;5.75;1.02;;;10.60;99.90;;;;;;5047910;28;20040;-44
2023/11/04 07:57:48;;;;;;;6.32;1.95;;;10.60;99.90;;;;;;5049703;28;20029;-42
2023/11/04 08:00:14;;;;;;;30.83;2.35;;;10.60;99.90;;;;;;5051132;28;20036;-41
2023/11/04 08:02:40;;;;;;;7.97;1.75;;;10.50;99.90;;;;;;5049782;28;20522;-44
2023/11/04 08:05:10;;;;;;;2.13;1.10;;;10.60;99.90;;;;;;5043700;28;20041;-46
2023/11/04 08:07:37;;;;;;;4.05;1.00;;;10.60;99.90;;;;;;5034462;28;20469;-41
2023/11/04 08:10:04;;;;;;;6.18;1.25;;;10.60;99.90;;;;;;5049185;28;20028;-41
2023/11/04 08:12:30;;;;;;;6.60;1.10;;;10.60;99.90;;;;;;5035196;28;20496;-44
2023/11/04 08:14:55;;;;;;;1.52;0.80;;;10.60;99.90;;;;;;5026729;28;20440;-43
2023/11/04 08:17:21;;;;;;;3.45;1.23;;;10.60;99.90;;;;;;5049368;28;20104;-43
2023/11/04 08:19:47;;;;;;;17.02;2.88;;;10.70;99.90;;;;;;5050767;28;20033;-45
2023/11/04 08:22:14;;;;;;;2.70;1.08;;;10.70;99.90;;;;;;5052513;28;20049;-43
2023/11/04 08:24:40;;;;;;;4.80;0.70;;;10.70;99.90;;;;;;5051703;28;20417;-43
2023/11/04 08:27:07;;;;;;;4.95;1.20;;;10.70;99.90;;;;;;5052649;28;20025;-42
2023/11/04 08:29:32;;;;;;;3.05;1.15;;;10.80;99.90;;;;;;5052612;28;20025;-40
2023/11/04 08:31:59;;;;;;;6.72;1.13;;;10.70;99.90;;;;;;5048980;28;20033;-43
2023/11/04 08:34:25;;;;;;;7.45;1.33;;;10.70;99.90;;;;;;5052285;28;20460;-42
2023/11/04 08:36:51;;;;;;;6.80;1.38;;;10.70;99.90;;;;;;5050401;28;20022;-45
2023/11/04 08:39:17;;;;;;;5.38;1.52;;;10.70;99.90;;;;;;5046092;28;20018;-48
2023/11/04 08:41:44;;;;;;;3.55;1.20;;;10.70;99.90;;;;;;5035155;28;20444;-42
2023/11/04 08:44:11;;;;;;;4.45;1.73;;;10.80;99.90;;;;;;5045207;28;20067;-42
2023/11/04 08:46:37;;;;;;;4.05;0.88;;;10.80;99.90;;;;;;5046350;28;20120;-43
2023/11/04 08:49:03;;;;;;;7.00;1.63;;;10.80;99.90;;;;;;5055555;28;20477;-42
2023/11/04 08:51:28;;;;;;;5.65;1.17;;;10.80;99.90;;;;;;5052347;28;20120;-44
2023/11/04 08:53:54;;;;;;;4.15;0.90;;;10.80;99.90;;;;;;5051969;28;20041;-45
2023/11/04 08:56:20;;;;;;;5.85;1.20;;;10.80;99.90;;;;;;5055053;28;20464;-43
2023/11/04 08:58:46;;;;;;;6.45;1.20;;;10.90;99.90;;;;;;5048253;28;20370;-43
2023/11/04 09:01:15;;;;;;;4.85;1.02;;;10.90;99.90;;;;;;5055303;28;20025;-42
2023/11/04 09:03:41;;;;;;;2.65;0.98;;;11.00;99.90;;;;;;5048856;28;20461;-43
2023/11/04 09:06:07;;;;;;;4.80;1.27;;;11.00;99.90;;;;;;5050199;28;20043;-45
2023/11/04 09:08:33;;;;;;;1.75;1.40;;;11.10;99.90;;;;;;5054966;28;20366;-46
2023/11/04 09:10:59;;;;;;;6.53;1.00;;;11.10;99.90;;;;;;5055747;28;20029;-42
2023/11/04 09:13:26;;;;;;;7.32;0.93;;;11.20;99.90;;;;;;5055852;28;20051;-43
2023/11/04 09:15:52;;;;;;;3.77;0.77;;;11.20;99.90;;;;;;5055761;28;20070;-41
2023/11/04 09:18:18;;;;;;;4.57;0.82;;;11.20;99.90;;;;;;5052018;28;20114;-45
2023/11/04 09:20:45;;;;;;;11.57;1.45;;;11.20;99.90;;;;;;5035475;28;20049;-41
2023/11/04 09:23:11;;;;;;;10.13;1.40;;;11.20;99.90;;;;;;5055552;28;20021;-45
2023/11/04 09:25:37;;;;;;;6.43;0.70;;;11.30;99.90;;;;;;5054818;28;20025;-42
2023/11/04 09:28:03;;;;;;;2.92;1.15;;;11.40;99.90;;;;;;5044581;28;20075;-45
2023/11/04 09:30:28;;;;;;;4.85;1.60;;;11.50;99.90;;;;;;5052163;28;20503;-40
2023/11/04 09:32:54;;;;;;;4.15;1.48;;;11.60;99.90;;;;;;5053702;28;20040;-44
2023/11/04 09:35:20;;;;;;;2.67;1.10;;;11.70;99.90;;;;;;5055163;28;20029;-44
2023/11/04 09:37:46;;;;;;;10.02;1.40;;;11.70;99.90;;;;;;5039081;28;20045;-43
2023/11/04 09:40:12;;;;;;;2.72;1.33;;;11.80;99.90;;;;;;5055367;28;20446;-47
2023/11/04 09:42:38;;;;;;;3.70;1.45;;;11.80;99.90;;;;;;5055005;28;20103;-44
2023/11/04 09:45:05;;;;;;;7.80;1.13;;;11.80;99.90;;;;;;5049619;28;20049;-43
2023/11/04 09:47:31;;;;;;;1.15;1.05;;;11.80;99.90;;;;;;5054951;28;20048;-44
2023/11/04 09:50:00;;;;;;;1.38;0.80;;;11.70;99.90;;;;;;5048888;28;20044;-42
2023/11/04 09:52:30;;;;;;;1.77;0.98;;;11.70;99.90;;;;;;5054039;28;20024;-45
2023/11/04 09:54:57;;;;;;;3.33;1.00;;;11.70;99.90;;;;;;5052954;28;20473;-45
2023/11/04 09:57:23;;;;;;;5.75;0.77;;;11.70;99.90;;;;;;5036199;28;20465;-43
2023/11/04 09:59:49;;;;;;;4.00;0.85;;;11.60;99.90;;;;;;5051274;28;20025;-44
2023/11/04 10:02:15;;;;;;;3.60;0.77;;;11.60;99.90;;;;;;5044525;28;20036;-47
2023/11/04 10:04:41;;;;;;;0.50;0.50;;;11.50;99.90;;;;;;5052866;28;20082;-44
2023/11/04 10:07:07;;;;;;;4.82;1.10;;;11.60;99.90;;;;;;5054696;28;20024;-47
2023/11/04 10:09:34;;;;;;;3.65;1.00;;;11.60;99.90;;;;;;5052586;28;20395;-43
2023/11/04 10:12:01;;;;;;;2.70;1.23;;;11.70;99.90;;;;;;5053106;28;20028;-44
2023/11/04 10:14:26;;;;;;;3.03;0.80;;;11.80;99.90;;;;;;5051617;28;20052;-42
2023/11/04 10:16:52;;;;;;;2.67;0.93;;;11.90;99.90;;;;;;5038568;28;20460;-43
2023/11/04 10:19:19;;;;;;;7.50;2.63;;;12.10;99.90;;;;;;5052843;28;20493;-45
2023/11/04 10:21:45;;;;;;;2.67;0.82;;;12.10;99.90;;;;;;5054596;28;20410;-46
2023/11/04 10:24:11;;;;;;;4.20;0.88;;;12.00;99.90;;;;;;5054574;28;20021;-45
2023/11/04 10:26:37;;;;;;;3.22;0.77;;;12.00;99.90;;;;;;5052552;28;20520;-45
2023/11/04 10:29:04;;;;;;;5.35;0.73;;;12.00;99.90;;;;;;5049462;28;20493;-46
2023/11/04 10:31:31;;;;;;;1.63;1.05;;;12.00;99.90;;;;;;5053501;28;20154;-46
2023/11/04 10:34:02;;;;;;;2.95;1.15;;;12.00;99.90;;;;;;5046699;28;20462;-47
2023/11/04 10:36:31;;;;;;;2.90;0.52;;;11.90;99.90;;;;;;5053398;28;20025;-46
2023/11/04 10:39:02;;;;;;;7.18;0.93;;;11.90;99.90;;;;;;5053899;28;20410;-44
2023/11/04 10:41:44;;;;;;;1.73;0.52;;;11.80;99.90;;;;;;5054206;28;20025;-44
2023/11/04 10:44:18;;;;;;;1.58;0.80;;;11.80;99.90;;;;;;5053830;28;20094;-47
2023/11/04 10:47:10;;;;;;;3.80;0.60;;;11.70;99.90;;;;;;5034013;28;20335;-45
2023/11/04 10:49:58;;;;;;;3.78;0.90;;;11.60;99.90;;;;;;4997158;28;20037;-43
2023/11/04 10:52:29;;;;;;;5.65;0.73;;;11.60;99.90;;;;;;5042534;28;20525;-44
2023/11/04 10:55:11;;;;;;;4.22;0.65;;;11.50;99.90;;;;;;5022379;28;20450;-43
2023/11/04 10:57:41;;;;;;;1.98;0.75;;;11.50;99.90;;;;;;5042227;28;20516;-48
2023/11/04 11:00:13;;;;;;;1.55;0.75;;;11.50;99.90;;;;;;5036509;28;20044;-42
2023/11/04 11:02:45;;;;;;;1.95;0.80;;;11.50;99.90;;;;;;5048356;28;20075;-43
2023/11/04 11:05:12;;;;;;;2.55;1.10;;;11.40;99.90;;;;;;5037586;28;20033;-45
2023/11/04 11:07:45;;;;;;;2.28;0.90;;;11.40;99.90;;;;;;5033963;28;20029;-43
2023/11/04 11:10:13;;;;;;;2.58;0.75;;;11.40;99.90;;;;;;5032142;28;20477;-45
2023/11/04 11:13:00;;;;;;;1.15;0.95;;;11.40;99.90;;;;;;5052530;28;20035;-44
2023/11/04 11:15:27;;;;;;;0.70;0.50;;;11.40;99.90;;;;;;5049418;28;20033;-44
2023/11/04 11:17:59;;;;;;;5.22;0.95;;;11.40;99.90;;;;;;5033705;28;20029;-46
2023/11/04 11:20:35;;;;;;;5.97;1.02;;;11.40;99.90;;;;;;5015792;28;20499;-45
2023/11/04 11:23:08;;;;;;;1.33;0.70;;;11.40;99.90;;;;;;5033811;28;20502;-48
2023/11/04 11:25:38;;;;;;;0.65;0.65;;;11.40;99.90;;;;;;5033352;28;20667;-44
2023/11/04 11:28:20;;;;;;;1.73;0.90;;;11.40;99.90;;;;;;5033307;28;20025;-44
2023/11/04 11:30:53;;;;;;;5.35;0.68;;;11.40;99.90;;;;;;5015564;28;20033;-41
2023/11/04 11:33:27;;;;;;;0.52;0.52;;;11.40;99.90;;;;;;5024503;28;20400;-45
2023/11/04 11:36:00;;;;;;;0.93;0.52;;;11.40;99.90;;;;;;5053343;28;20381;-42
2023/11/04 11:38:30;;;;;;;4.47;0.63;;;11.40;99.90;;;;;;5052959;28;20025;-42
2023/11/04 11:41:05;;;;;;;1.92;0.60;;;11.40;99.90;;;;;;5053020;28;20548;-40
2023/11/04 11:43:32;;;;;;;1.92;0.73;;;11.20;99.90;;;;;;5053044;28;20023;-44
2023/11/04 11:45:59;;;;;;;0.57;0.55;;;11.00;99.90;;;;;;5052788;28;20556;-40
2023/11/04 11:48:25;;;;;;;3.10;1.00;;;10.90;99.90;;;;;;5053173;28;20044;-41
2023/11/04 11:50:51;;;;;;;5.38;0.73;;;10.80;99.90;;;;;;5053144;28;20525;-41
2023/11/04 11:53:17;;;;;;;1.15;0.47;;;10.80;99.90;;;;;;5052783;28;20115;-38
2023/11/04 11:55:57;;;;;;;4.03;0.90;;;10.80;99.90;;;;;;5052753;28;20068;-37
2023/11/04 11:58:24;;;;;;;6.85;0.63;;;10.70;99.90;;;;;;5052856;28;20427;-39
2023/11/04 12:00:49;;;;;;;1.33;0.50;;;10.50;99.90;;;;;;5034912;28;20021;-41
2023/11/04 12:03:15;;;;;;;4.35;0.70;;;10.50;99.90;;;;;;5052842;28;20028;-38
2023/11/04 12:05:44;;;;;;;4.68;0.68;;;10.40;99.90;;;;;;5052883;28;20363;-41
2023/11/04 12:08:10;;;;;;;7.35;0.82;;;10.40;99.90;;;;;;5052620;28;20054;-42
2023/11/04 12:10:35;;;;;;;4.80;1.17;;;10.40;99.90;;;;;;5052679;28;20025;-39
2023/11/04 12:13:01;;;;;;;4.43;1.02;;;10.40;99.90;;;;;;5052658;28;20130;-44
2023/11/04 12:15:27;;;;;;;5.38;0.75;;;10.50;99.90;;;;;;5051683;28;20028;-43
2023/11/04 12:18:02;;;;;;;2.15;0.90;;;10.60;99.90;;;;;;5052524;28;20477;-40
2023/11/04 12:20:29;;;;;;;4.35;0.73;;;10.50;99.90;;;;;;5052908;28;20029;-39
2023/11/04 12:22:59;;;;;;;2.08;0.57;;;10.60;99.90;;;;;;5052807;28;20122;-41
2023/11/04 12:25:26;;;;;;;3.50;0.75;;;10.50;99.90;;;;;;5052481;28;20063;-40
2023/11/04 12:27:52;;;;;;;2.63;0.85;;;10.50;99.90;;;;;;5052518;28;20033;-42
2023/11/04 12:30:19;;;;;;;2.65;0.93;;;10.50;99.90;;;;;;5052727;28;20492;-38
2023/11/04 12:32:49;;;;;;;2.17;0.50;;;10.40;99.90;;;;;;5048529;28;20033;-36
2023/11/04 12:35:16;;;;;;;2.40;0.70;;;10.30;99.90;;;;;;5032272;28;20037;-36
2023/11/04 12:37:42;;;;;;;0.50;0.32;;;10.10;99.90;;;;;;5032364;28;20478;-37
2023/11/04 12:40:09;;;;;;;5.13;0.80;;;9.90;99.90;;;;;;5032414;28;20029;-36
2023/11/04 12:42:35;;;;;;;2.15;0.30;;;9.80;99.90;;;;;;5032654;28;20490;-36
2023/11/04 12:45:01;;;;;;;3.20;0.52;;;9.80;99.90;;;;;;5031929;28;20041;-38
2023/11/04 12:47:27;;;;;;;2.15;0.50;;;9.70;99.90;;;;;;5032107;28;20055;-36